Buckholts, Texas
Current Conditions -  °F | °C
As of 3:35 PM on Thursday 23 Oct 2014 (Local Time) from KT35 Reporting Station
Clear Clear  
Wind Chill: 80°   Ceiling: Unl
Heat Index: 80°   Visibility: 10mi
Dew Point: 58°   Wind: 0mph
Humidity: 48%   Direction: NA
Pressure: 30.08"   Gusts: NA
Location:  30.87°N, 97.12°W
Report Text: KT35 232035Z AUTO 00000KT 10SM CLR 27/15 A3008 RMK AO2 T02650146
Loading
Personal Weather Stations






























Interactive Weather Map
Tropical Storm Tracking
New forecast layout! Learn more

10-Day Weather Forecast

Advertisements
Track Severe Weather on mobile